Terminal Aerodrome Forecast
Issued by NWS Charleston, WV

Home | Current Version | Previous Version | Text Only | Print | Product List | Glossary On
Versions: 1 2 3 4 5 6 7 8 9 10 11 12 13 14 15 16 17 18 19 20 21 22 23 24 25 26 27 28 29
000
FTUS41 KRLX 201700
TAFCRW
TAF
KCRW 201738Z 2018/2118 19005KT P6SM SCT040
     FM210200 00000KT 6SM BR BKN100
     FM210400 00000KT 3SM BR BKN090
     FM210800 00000KT 1SM BR BKN001
     FM211000 00000KT 2SM -SHRA BR BKN003 BKN012
     FM211430 24003KT 5SM SHRA VCTS BKN060CB BKN170=

USA.gov is the U.S. government's official web portal to all federal, state and local government web resources and services.